Airfield :
LOGIN :

Register | Disclaimer

   EN    FR    IT 

 










Legend :    VFR   Marginal VFR   IFR   Intensive IFR   Very Intensive IFR
Visi :
Ceiling :
>= 8 km
>= 3000ft
5 to 8 km
1000 to 3000 ft
1500m to 5 km
500 to 1000 ft
800 to 1500m
200 to 500 ft
< 800m
< 200 ft
Symbols :   Thunderstorms  Fog  Heavy snow  Heavy precipitations  Wind > 20 kt
SIGMETs :     Misc.  Thunderstorms  Icing  Turbulence  Mountain Waves  Volcanic Ashes






- Airport Elevation : 284 ft


EGUW - RAF Wattisham

CURRENT METAR :
  • 230831Z 20010KT 9999 SCT004 12/12 Q1007 BECMG FEW006 RMK YLO2 BECMG BLU

EXPIRED METARs :
  • 230816Z 20011KT 9999 FEW003 12/12 Q1007 TEMPO SCT005 RMK BLU TEMPO YLO1
  • 230750Z 21012KT 9000 BR BKN003 12/12 Q1007 BECMG 9999 NSW SCT007 RMK YLO2 BECMG GRN
  • 230740Z 21012KT 8000 BR FEW002 BKN003 12/12 Q1007 BECMG 9999 NSW BKN007 RMK YLO2 BECMG GRN
  • 230720Z 21011KT 3500 BR BKN002 12/12 Q1007 BECMG 9999 NSW BKN007 RMK AMB BECMG GRN
  • 230650Z 20010KT 1800 BR OVC001 11/11 Q1007 BECMG 9999 NSW BKN007 RMK RED BECMG GRN
  • 230550Z 18008KT 1200 BR OVC001 11/11 Q1007 RMK RED

TAF AMD TAF EGUW
Valid from the 23 at 09:00 until the 23 at 18:00 UTC


230821Z 2309/2318 22010KT 9999 FEW006
TEMPO 2309/2311 SCT007
TEMPO 2311/2316 SCT016



MET'MAP, your aeronautical weather chart ! - Copyright ORBIFLY December 2007 - Disclaimer

ORBIFLY MET'MAP TEAM :

Programming & Development : Alexandra Zaïnal
Concept & original design : Baudouin d'Aumeries
Assistance for programming : Marc-Olivier Méhu
Technical & hardware support : Manuel Goepfert

Contact : metmap@orbifly.com




SOURCES & CREDITS :

   NOAA